Time;durP1;ratioP1;P1;durP2;ratioP2;P2;SDS_P1;SDS_P2;PMS_P1;PMS_P2;Temp;Humidity;BMP_temperature;BMP_pressure;BME280_temperature;BME280_humidity;BME280_pressure;Samples;Min_cycle;Max_cycle;Signal;HPM_P1;HPM_P2
2022/08/11 00:01:21;;;;;;;17.30;15.02;;;;;;;;;;4403189;32;20201;-84
2022/08/11 00:03:51;;;;;;;11.75;10.05;;;;;;;;;;4403070;32;20245;-83
2022/08/11 00:06:36;;;;;;;17.92;7.65;;;;;;;;;;4403381;32;20263;-84
2022/08/11 00:09:24;;;;;;;8.25;5.00;;;;;;;;;;4403118;32;20639;-84
2022/08/11 00:11:52;;;;;;;4.75;4.18;;;;;;;;;;4402602;32;20273;-82
2022/08/11 00:14:19;;;;;;;8.75;4.53;;;;;;;;;;4402766;32;20917;-83
2022/08/11 00:16:55;;;;;;;4.30;3.50;;;;;;;;;;4403096;32;20321;-84
2022/08/11 00:19:23;;;;;;;8.02;4.55;;;;;;;;;;4402695;32;20739;-84
2022/08/11 00:21:49;;;;;;;4.97;3.90;;;;;;;;;;4401243;32;20236;-83
2022/08/11 00:24:15;;;;;;;5.50;4.65;;;;;;;;;;4402480;32;20247;-83
2022/08/11 00:26:48;;;;;;;8.43;4.90;;;;;;;;;;4401471;32;20256;-85
2022/08/11 00:29:14;;;;;;;6.05;3.92;;;;;;;;;;4402506;32;20739;-83
2022/08/11 00:31:46;;;;;;;6.43;4.45;;;;;;;;;;4401440;32;20276;-83
2022/08/11 00:34:13;;;;;;;9.98;4.22;;;;;;;;;;4402673;32;20259;-84
2022/08/11 00:36:53;;;;;;;10.07;4.55;;;;;;;;;;4402483;32;20290;-83
2022/08/11 00:39:21;;;;;;;8.98;4.53;;;;;;;;;;4402286;32;20225;-85
2022/08/11 00:42:14;;;;;;;5.57;3.97;;;;;;;;;;4401528;32;20615;-83
2022/08/11 00:44:48;;;;;;;7.22;4.10;;;;;;;;;;4402114;32;20213;-88
2022/08/11 00:47:28;;;;;;;3.85;3.45;;;;;;;;;;4401122;32;20334;-84
2022/08/11 00:50:06;;;;;;;6.87;3.95;;;;;;;;;;4402484;32;20542;-85
2022/08/11 00:52:37;;;;;;;9.25;4.87;;;;;;;;;;4402437;32;20276;-83
2022/08/11 00:55:15;;;;;;;16.65;9.07;;;;;;;;;;4402542;32;20371;-85
2022/08/11 00:58:09;;;;;;;13.73;8.35;;;;;;;;;;4402620;32;20245;-84
2022/08/11 01:01:14;;;;;;;18.55;12.30;;;;;;;;;;4401950;32;20285;-86
2022/08/11 01:04:02;;;;;;;27.45;17.60;;;;;;;;;;4401259;32;20350;-86
2022/08/11 01:06:55;;;;;;;20.75;13.57;;;;;;;;;;4402233;32;20217;-84
2022/08/11 01:09:53;;;;;;;20.08;12.27;;;;;;;;;;4402107;32;20241;-82
2022/08/11 01:12:43;;;;;;;21.50;12.30;;;;;;;;;;4402013;32;20217;-84
2022/08/11 01:15:28;;;;;;;19.23;11.55;;;;;;;;;;4401573;32;20259;-84
2022/08/11 01:18:08;;;;;;;16.05;11.73;;;;;;;;;;4401992;32;20326;-85
2022/08/11 01:20:58;;;;;;;13.57;10.43;;;;;;;;;;4401850;32;20233;-84
2022/08/11 01:23:54;;;;;;;16.60;9.60;;;;;;;;;;4402138;32;20269;-84
2022/08/11 01:26:50;;;;;;;16.98;9.32;;;;;;;;;;4401717;32;20816;-84
2022/08/11 01:29:21;;;;;;;8.05;7.07;;;;;;;;;;4386816;32;20253;-86
2022/08/11 01:32:13;;;;;;;16.02;6.87;;;;;;;;;;4385515;32;20250;-83
2022/08/11 01:35:11;;;;;;;8.85;6.40;;;;;;;;;;4386767;32;20241;-84
2022/08/11 01:37:48;;;;;;;10.27;5.53;;;;;;;;;;4386391;32;20642;-85
2022/08/11 01:40:16;;;;;;;6.97;5.22;;;;;;;;;;4397277;32;20308;-86
2022/08/11 01:46:28;;;;;;;5.60;4.72;;;;;;;;;;4401697;32;20724;-82
2022/08/11 01:49:23;;;;;;;7.95;5.28;;;;;;;;;;4401515;32;20274;-84
2022/08/11 01:52:19;;;;;;;8.82;7.28;;;;;;;;;;4401788;32;20198;-82
2022/08/11 01:55:12;;;;;;;13.00;6.37;;;;;;;;;;4400064;32;20242;-83
2022/08/11 01:57:55;;;;;;;10.38;5.32;;;;;;;;;;4402027;32;20237;-83
2022/08/11 02:00:27;;;;;;;7.22;4.82;;;;;;;;;;4401390;32;20311;-83
2022/08/11 02:03:03;;;;;;;11.07;6.00;;;;;;;;;;4401612;32;20327;-82
2022/08/11 02:05:59;;;;;;;5.53;4.37;;;;;;;;;;4401164;32;20288;-83
2022/08/11 02:09:07;;;;;;;8.57;4.87;;;;;;;;;;4399989;32;20590;-82
2022/08/11 02:11:36;;;;;;;9.52;4.87;;;;;;;;;;4372391;32;20263;-83
2022/08/11 02:14:26;;;;;;;13.40;4.80;;;;;;;;;;4401203;32;20209;-83
2022/08/11 02:16:58;;;;;;;8.73;5.03;;;;;;;;;;4400077;32;20214;-83
2022/08/11 02:23:41;;;;;;;12.82;5.30;;;;;;;;;;4386179;32;20290;-83
2022/08/11 02:26:22;;;;;;;8.40;4.72;;;;;;;;;;4383733;32;20660;-82
2022/08/11 02:28:53;;;;;;;7.85;6.05;;;;;;;;;;4398014;32;20289;-83
2022/08/11 02:34:38;;;;;;;9.00;5.90;;;;;;;;;;4400841;32;20255;-82
2022/08/11 02:37:36;;;;;;;17.10;6.05;;;;;;;;;;4401245;32;20314;-81
2022/08/11 02:40:21;;;;;;;8.40;5.68;;;;;;;;;;4400954;32;20217;-84
2022/08/11 02:42:46;;;;;;;10.90;6.87;;;;;;;;;;4401305;32;20220;-83
2022/08/11 02:45:47;;;;;;;8.50;6.82;;;;;;;;;;4400977;32;20237;-83
2022/08/11 02:51:54;;;;;;;10.68;7.32;;;;;;;;;;4400908;32;20747;-82
2022/08/11 02:54:31;;;;;;;12.60;7.65;;;;;;;;;;4399509;32;20777;-82
2022/08/11 02:57:02;;;;;;;18.83;6.57;;;;;;;;;;4401422;32;20196;-83
2022/08/11 02:59:58;;;;;;;9.50;5.87;;;;;;;;;;4400783;32;20458;-82
2022/08/11 03:02:33;;;;;;;10.20;6.65;;;;;;;;;;4399331;32;20696;-83
2022/08/11 03:05:44;;;;;;;9.82;7.03;;;;;;;;;;4400487;32;20240;-82
2022/08/11 03:08:34;;;;;;;10.98;6.03;;;;;;;;;;4400911;32;20279;-84
2022/08/11 03:17:03;;;;;;;9.80;6.05;;;;;;;;;;4400810;32;20224;-83
2022/08/11 03:20:07;;;;;;;9.70;5.60;;;;;;;;;;4400610;32;20245;-82
2022/08/11 03:22:48;;;;;;;11.50;6.05;;;;;;;;;;4400841;32;20307;-84
2022/08/11 03:25:30;;;;;;;13.93;6.35;;;;;;;;;;4400653;32;20225;-82
2022/08/11 03:28:13;;;;;;;15.80;7.25;;;;;;;;;;4400556;32;20272;-82
2022/08/11 03:31:00;;;;;;;8.93;5.93;;;;;;;;;;4401708;32;20233;-82
2022/08/11 03:36:21;;;;;;;10.00;5.45;;;;;;;;;;4403395;32;20364;-83
2022/08/11 03:39:07;;;;;;;12.13;5.85;;;;;;;;;;4403467;32;20269;-82
2022/08/11 03:41:48;;;;;;;15.70;6.20;;;;;;;;;;4403350;32;20288;-82
2022/08/11 03:44:42;;;;;;;16.80;5.53;;;;;;;;;;4403347;32;20352;-82
2022/08/11 03:47:30;;;;;;;13.02;5.57;;;;;;;;;;4403578;32;20225;-82
2022/08/11 03:50:12;;;;;;;13.62;6.18;;;;;;;;;;4403541;32;20301;-82
2022/08/11 03:53:16;;;;;;;8.07;5.28;;;;;;;;;;4403263;32;20261;-84
2022/08/11 03:56:01;;;;;;;10.02;5.68;;;;;;;;;;4403637;32;20235;-84
2022/08/11 03:58:58;;;;;;;13.00;5.40;;;;;;;;;;4403399;32;20695;-84
2022/08/11 04:02:16;;;;;;;19.73;7.07;;;;;;;;;;4384411;32;20306;-82
2022/08/11 04:04:59;;;;;;;19.60;10.65;;;;;;;;;;4384949;32;20265;-82
2022/08/11 04:07:56;;;;;;;25.83;10.60;;;;;;;;;;4403140;32;20233;-82
2022/08/11 04:10:52;;;;;;;17.75;11.18;;;;;;;;;;4402723;32;20275;-82
2022/08/11 04:13:25;;;;;;;23.33;15.70;;;;;;;;;;4386656;32;20442;-83
2022/08/11 04:16:03;;;;;;;36.25;17.67;;;;;;;;;;4402606;32;20456;-82
2022/08/11 04:18:50;;;;;;;19.67;13.18;;;;;;;;;;4402471;32;20334;-83
2022/08/11 04:21:38;;;;;;;16.75;9.15;;;;;;;;;;4402593;32;20249;-83
2022/08/11 04:24:25;;;;;;;18.37;9.48;;;;;;;;;;4402846;32;20305;-83
2022/08/11 04:27:12;;;;;;;10.20;7.82;;;;;;;;;;4402703;32;20234;-82
2022/08/11 04:29:59;;;;;;;12.10;6.18;;;;;;;;;;4402605;32;20630;-82
2022/08/11 04:32:50;;;;;;;10.38;6.70;;;;;;;;;;4401221;32;20302;-82
2022/08/11 04:35:56;;;;;;;6.90;5.93;;;;;;;;;;4402504;32;20242;-84
2022/08/11 04:38:57;;;;;;;15.90;5.65;;;;;;;;;;4371766;32;20253;-82
2022/08/11 04:43:19;;;;;;;11.82;5.80;;;;;;;;;;4386308;32;20328;-84
2022/08/11 04:44:38;;;;;;;12.73;6.10;;;;;;;;;;4386991;32;20333;-82
2022/08/11 05:01:39;;;;;;;11.18;6.50;;;;;;;;;;4387666;32;20340;-83
2022/08/11 05:02:47;;;;;;;10.43;6.22;;;;;;;;;;4385831;32;20244;-82
2022/08/11 05:05:31;;;;;;;13.80;6.60;;;;;;;;;;4387456;32;20325;-81
2022/08/11 05:08:14;;;;;;;17.67;7.07;;;;;;;;;;4400245;32;20283;-84
2022/08/11 05:11:17;;;;;;;11.35;7.45;;;;;;;;;;4401038;32;20201;-82
2022/08/11 05:36:44;;;;;;;31.83;13.57;;;;;;;;;;4418808;32;20283;-82
2022/08/11 05:56:20;;;;;;;17.00;8.75;;;;;;;;;;4386625;32;20283;-82
2022/08/11 05:58:51;;;;;;;13.95;8.50;;;;;;;;;;4386722;32;20217;-82
2022/08/11 06:01:23;;;;;;;14.30;8.68;;;;;;;;;;4389942;32;20556;-83
2022/08/11 06:06:39;;;;;;;12.48;8.23;;;;;;;;;;4400834;32;20291;-82
2022/08/11 06:09:06;;;;;;;20.10;8.55;;;;;;;;;;4400682;32;20257;-83
2022/08/11 06:11:41;;;;;;;21.50;8.88;;;;;;;;;;4401458;32;20271;-82
2022/08/11 06:14:09;;;;;;;17.02;7.68;;;;;;;;;;4401386;32;20263;-82
2022/08/11 06:16:36;;;;;;;14.68;8.05;;;;;;;;;;4401006;32;20309;-82
2022/08/11 06:19:05;;;;;;;10.18;7.40;;;;;;;;;;4401024;32;20248;-82
2022/08/11 06:21:34;;;;;;;10.35;7.22;;;;;;;;;;4401019;32;20257;-83
2022/08/11 06:24:04;;;;;;;11.68;7.50;;;;;;;;;;4401159;32;20540;-86
2022/08/11 06:26:30;;;;;;;12.63;7.00;;;;;;;;;;4399965;32;20233;-81
2022/08/11 06:28:58;;;;;;;16.52;7.45;;;;;;;;;;4401080;32;20298;-83
2022/08/11 06:31:24;;;;;;;9.93;6.43;;;;;;;;;;4387520;32;20400;-83
2022/08/11 06:33:49;;;;;;;9.43;6.32;;;;;;;;;;4401157;32;20263;-86
2022/08/11 06:36:26;;;;;;;17.60;7.57;;;;;;;;;;4400589;32;20329;-83
2022/08/11 06:39:19;;;;;;;8.52;5.70;;;;;;;;;;4400680;32;20256;-82
2022/08/11 06:42:09;;;;;;;9.38;5.68;;;;;;;;;;4399547;32;20245;-83
2022/08/11 06:45:15;;;;;;;5.60;5.07;;;;;;;;;;4401273;32;20279;-83
2022/08/11 06:47:48;;;;;;;6.35;5.05;;;;;;;;;;4378735;32;20749;-82
2022/08/11 06:53:11;;;;;;;7.18;5.30;;;;;;;;;;4400616;32;20262;-85
2022/08/11 07:01:22;;;;;;;7.93;5.68;;;;;;;;;;4398473;32;20244;-84
2022/08/11 07:03:58;;;;;;;11.85;5.75;;;;;;;;;;4400085;32;20201;-83
2022/08/11 07:06:37;;;;;;;8.48;5.35;;;;;;;;;;4402009;32;20233;-83
2022/08/11 07:30:20;;;;;;;9.48;4.72;;;;;;;;;;4401845;32;20293;-81
2022/08/11 07:32:59;;;;;;;7.32;4.68;;;;;;;;;;4402109;32;20238;-81
2022/08/11 07:35:35;;;;;;;6.10;4.80;;;;;;;;;;4402394;32;20271;-82
2022/08/11 07:38:11;;;;;;;15.70;5.20;;;;;;;;;;4403502;32;20209;-82
2022/08/11 07:40:38;;;;;;;12.48;4.35;;;;;;;;;;4403416;32;20316;-83
2022/08/11 07:43:05;;;;;;;5.80;4.60;;;;;;;;;;4402007;32;20475;-83
2022/08/11 07:53:53;;;;;;;9.00;4.37;;;;;;;;;;4402285;32;20223;-83
2022/08/11 07:56:18;;;;;;;5.78;4.75;;;;;;;;;;4403395;32;20259;-82
2022/08/11 08:18:06;;;;;;;6.37;4.35;;;;;;;;;;4401547;32;20289;-84
2022/08/11 08:20:37;;;;;;;5.40;4.57;;;;;;;;;;4402927;32;20658;-85
2022/08/11 08:23:04;;;;;;;7.80;5.20;;;;;;;;;;4402193;32;20279;-83
2022/08/11 08:25:32;;;;;;;5.12;4.30;;;;;;;;;;4402846;32;20225;-82
2022/08/11 08:27:59;;;;;;;5.50;4.00;;;;;;;;;;4402627;32;20217;-84
2022/08/11 08:33:22;;;;;;;8.27;4.28;;;;;;;;;;4401691;32;20225;-85
2022/08/11 08:35:51;;;;;;;6.87;4.30;;;;;;;;;;4401378;32;20319;-84
2022/08/11 08:38:18;;;;;;;4.35;3.92;;;;;;;;;;4401482;32;20271;-85
2022/08/11 08:40:47;;;;;;;9.32;4.65;;;;;;;;;;4402012;32;20316;-82
2022/08/11 08:43:16;;;;;;;6.35;4.00;;;;;;;;;;4402785;32;20229;-84
2022/08/11 08:45:42;;;;;;;6.68;3.87;;;;;;;;;;4402711;32;20301;-84
2022/08/11 08:48:12;;;;;;;11.48;3.97;;;;;;;;;;4402731;32;20288;-85
2022/08/11 08:53:33;;;;;;;4.93;3.17;;;;;;;;;;4402239;32;20236;-84
2022/08/11 08:56:00;;;;;;;3.22;2.92;;;;;;;;;;4402154;32;20782;-84
2022/08/11 08:58:29;;;;;;;7.97;3.20;;;;;;;;;;4402699;32;20883;-85
2022/08/11 09:00:58;;;;;;;13.27;3.62;;;;;;;;;;4402540;32;20672;-83
2022/08/11 09:03:26;;;;;;;8.32;3.53;;;;;;;;;;4401825;32;20331;-85
2022/08/11 09:05:55;;;;;;;3.20;2.90;;;;;;;;;;4400536;32;20229;-82
2022/08/11 09:08:22;;;;;;;7.80;3.97;;;;;;;;;;4402147;32;20319;-83
2022/08/11 09:13:34;;;;;;;3.67;3.20;;;;;;;;;;4387117;32;20379;-84
2022/08/11 09:16:04;;;;;;;7.50;3.72;;;;;;;;;;4385624;32;20296;-83
2022/08/11 09:18:31;;;;;;;4.68;3.20;;;;;;;;;;4386753;32;20320;-82
2022/08/11 09:20:58;;;;;;;4.80;3.05;;;;;;;;;;4391420;32;20225;-83
2022/08/11 09:28:54;;;;;;;4.25;3.15;;;;;;;;;;4400230;32;20306;-83
2022/08/11 09:31:21;;;;;;;3.67;3.22;;;;;;;;;;4401504;32;20344;-82
2022/08/11 09:33:51;;;;;;;4.80;3.03;;;;;;;;;;4401329;32;20214;-82
2022/08/11 09:41:49;;;;;;;2.87;2.62;;;;;;;;;;4399811;32;20243;-82
2022/08/11 09:46:59;;;;;;;2.67;2.47;;;;;;;;;;4401395;32;20398;-83
2022/08/11 09:49:26;;;;;;;11.38;2.67;;;;;;;;;;4401195;32;20225;-83
2022/08/11 09:51:53;;;;;;;6.05;2.42;;;;;;;;;;4401379;32;20217;-83
2022/08/11 09:54:19;;;;;;;3.45;2.53;;;;;;;;;;4400797;32;20218;-83
2022/08/11 09:59:28;;;;;;;16.23;4.43;;;;;;;;;;4401045;32;20212;-84
2022/08/11 10:01:58;;;;;;;3.05;2.47;;;;;;;;;;4400754;32;20218;-83
2022/08/11 10:04:44;;;;;;;12.10;2.78;;;;;;;;;;4401129;32;20415;-84
2022/08/11 10:07:14;;;;;;;6.03;2.35;;;;;;;;;;4400902;32;20805;-82
2022/08/11 10:09:50;;;;;;;4.75;2.33;;;;;;;;;;4401007;32;20303;-83
2022/08/11 10:12:23;;;;;;;4.10;2.47;;;;;;;;;;4401031;32;20704;-84
2022/08/11 10:18:41;;;;;;;3.80;2.45;;;;;;;;;;4401155;32;20578;-83
2022/08/11 10:20:32;;;;;;;5.45;2.35;;;;;;;;;;4400107;32;20241;-81
2022/08/11 10:28:27;;;;;;;5.35;2.35;;;;;;;;;;4401133;32;20235;-83
2022/08/11 10:36:23;;;;;;;3.03;2.65;;;;;;;;;;4400582;32;20307;-84
2022/08/11 10:38:51;;;;;;;5.10;2.50;;;;;;;;;;4400700;32;20228;-82
2022/08/11 10:44:06;;;;;;;3.30;2.62;;;;;;;;;;4400932;32;20300;-82
2022/08/11 10:49:18;;;;;;;9.10;2.72;;;;;;;;;;4385048;32;20393;-81
2022/08/11 11:00:05;;;;;;;7.28;2.40;;;;;;;;;;4400228;32;20244;-83
2022/08/11 11:02:32;;;;;;;3.30;2.60;;;;;;;;;;4399932;32;20225;-80
2022/08/11 11:05:15;;;;;;;5.65;2.05;;;;;;;;;;4399122;32;20261;-83
2022/08/11 11:07:43;;;;;;;6.10;2.37;;;;;;;;;;4400276;32;20744;-83
2022/08/11 11:10:09;;;;;;;3.53;2.40;;;;;;;;;;4391066;32;20252;-83
2022/08/11 11:18:35;;;;;;;6.80;2.33;;;;;;;;;;4385329;32;20339;-83
2022/08/11 11:21:08;;;;;;;3.37;1.92;;;;;;;;;;4385129;32;20202;-82
2022/08/11 11:23:46;;;;;;;2.28;1.85;;;;;;;;;;4384781;32;20872;-84
2022/08/11 11:26:30;;;;;;;2.42;2.08;;;;;;;;;;4384799;32;20598;-83
2022/08/11 11:28:59;;;;;;;2.55;1.85;;;;;;;;;;4398335;32;20359;-82
2022/08/11 11:31:27;;;;;;;8.15;2.10;;;;;;;;;;4400300;32;20314;-82
2022/08/11 11:34:10;;;;;;;3.12;2.25;;;;;;;;;;4399913;32;20217;-82
2022/08/11 11:36:45;;;;;;;2.25;2.05;;;;;;;;;;4399198;32;20777;-83
2022/08/11 11:39:11;;;;;;;4.20;1.90;;;;;;;;;;4398549;32;20228;-83
2022/08/11 11:41:37;;;;;;;9.20;3.35;;;;;;;;;;4397048;32;20720;-84
2022/08/11 11:44:04;;;;;;;6.07;2.90;;;;;;;;;;4399701;32;20265;-84
2022/08/11 11:46:30;;;;;;;6.47;2.53;;;;;;;;;;4399016;32;20263;-84
2022/08/11 11:48:59;;;;;;;3.53;2.53;;;;;;;;;;4398681;32;20255;-82
2022/08/11 11:51:26;;;;;;;3.83;2.50;;;;;;;;;;4399332;32;20296;-84
2022/08/11 11:53:52;;;;;;;2.45;2.25;;;;;;;;;;4400000;32;20293;-84
2022/08/11 11:56:20;;;;;;;1.83;1.58;;;;;;;;;;4401545;32;20367;-82
2022/08/11 12:01:32;;;;;;;3.45;2.42;;;;;;;;;;4403116;32;20378;-83
2022/08/11 12:03:59;;;;;;;8.07;2.58;;;;;;;;;;4402937;32;20247;-81
2022/08/11 12:06:26;;;;;;;2.75;1.80;;;;;;;;;;4401546;32;20283;-82
2022/08/11 12:08:54;;;;;;;6.40;2.12;;;;;;;;;;4401335;32;20719;-83
2022/08/11 12:14:09;;;;;;;3.75;2.70;;;;;;;;;;4402913;32;20256;-84
2022/08/11 12:16:35;;;;;;;5.50;2.33;;;;;;;;;;4401835;32;20375;-85
2022/08/11 12:19:04;;;;;;;4.12;2.53;;;;;;;;;;4402645;32;20269;-84
2022/08/11 12:21:30;;;;;;;5.60;2.90;;;;;;;;;;4402637;32;20253;-83
2022/08/11 12:29:14;;;;;;;7.20;2.87;;;;;;;;;;4402561;32;20287;-84
2022/08/11 12:31:43;;;;;;;11.50;2.72;;;;;;;;;;4401877;32;20262;-83
2022/08/11 12:34:11;;;;;;;5.45;2.92;;;;;;;;;;4402600;32;20321;-84
2022/08/11 12:36:43;;;;;;;3.75;2.90;;;;;;;;;;4402851;32;20218;-84
2022/08/11 12:39:12;;;;;;;3.60;2.70;;;;;;;;;;4402572;32;20319;-83
2022/08/11 12:47:15;;;;;;;2.00;1.77;;;;;;;;;;4400704;32;20270;-84
2022/08/11 12:52:33;;;;;;;3.15;2.00;;;;;;;;;;4400977;32;20293;-81
2022/08/11 12:55:10;;;;;;;3.12;2.00;;;;;;;;;;4403433;32;20229;-84
2022/08/11 13:05:59;;;;;;;2.75;2.15;;;;;;;;;;4401913;32;20285;-82
2022/08/11 13:08:28;;;;;;;2.28;1.65;;;;;;;;;;4401777;32;20688;-83
2022/08/11 13:13:42;;;;;;;2.50;2.30;;;;;;;;;;4401892;32;20905;-84
2022/08/11 13:16:09;;;;;;;3.40;2.53;;;;;;;;;;4401311;32;20240;-84
2022/08/11 13:18:36;;;;;;;4.22;2.60;;;;;;;;;;4401781;32;20538;-84
2022/08/11 13:21:02;;;;;;;11.50;2.80;;;;;;;;;;4401324;32;20373;-85
2022/08/11 13:23:28;;;;;;;4.35;2.03;;;;;;;;;;4401802;32;20213;-83
2022/08/11 13:25:55;;;;;;;2.92;2.20;;;;;;;;;;4401507;32;20335;-85
2022/08/11 13:28:22;;;;;;;6.95;2.20;;;;;;;;;;4387246;32;20226;-83
2022/08/11 13:33:45;;;;;;;2.28;2.00;;;;;;;;;;4401299;32;20313;-83
2022/08/11 13:36:11;;;;;;;3.95;2.42;;;;;;;;;;4401355;32;20251;-83
2022/08/11 13:38:40;;;;;;;3.30;2.47;;;;;;;;;;4401523;32;21093;-82
2022/08/11 13:41:36;;;;;;;3.62;2.40;;;;;;;;;;4401424;32;20281;-82
2022/08/11 13:43:54;;;;;;;4.60;2.28;;;;;;;;;;4401190;32;20602;-84
2022/08/11 13:46:23;;;;;;;3.62;2.55;;;;;;;;;;4401368;32;20271;-83
2022/08/11 13:48:51;;;;;;;3.05;2.75;;;;;;;;;;4401100;32;20230;-83
2022/08/11 13:51:30;;;;;;;9.73;3.15;;;;;;;;;;4401204;32;20294;-83
2022/08/11 13:53:58;;;;;;;4.62;2.80;;;;;;;;;;4400408;32;20694;-83
2022/08/11 13:56:25;;;;;;;4.15;2.97;;;;;;;;;;4399739;32;20843;-84
2022/08/11 13:58:52;;;;;;;3.22;2.90;;;;;;;;;;4401298;32;20310;-83
2022/08/11 14:01:20;;;;;;;3.83;3.35;;;;;;;;;;4400984;32;20256;-83
2022/08/11 14:03:49;;;;;;;6.87;2.53;;;;;;;;;;4400807;32;20209;-82
2022/08/11 14:06:18;;;;;;;4.65;2.80;;;;;;;;;;4400695;32;20229;-83
2022/08/11 14:08:45;;;;;;;6.32;2.92;;;;;;;;;;4400582;32;20304;-83
2022/08/11 14:13:58;;;;;;;9.35;3.83;;;;;;;;;;4399976;32;20813;-83
2022/08/11 14:16:31;;;;;;;4.53;3.03;;;;;;;;;;4400282;32;20311;-83
2022/08/11 14:19:01;;;;;;;8.73;2.90;;;;;;;;;;4400643;32;20582;-83
2022/08/11 14:24:16;;;;;;;5.20;3.33;;;;;;;;;;4400206;32;20275;-81
2022/08/11 14:26:43;;;;;;;2.90;2.60;;;;;;;;;;4400648;32;20225;-82
2022/08/11 14:29:14;;;;;;;3.35;2.45;;;;;;;;;;4400589;32;20307;-82
2022/08/11 14:31:53;;;;;;;3.03;2.53;;;;;;;;;;4399672;32;20324;-81
2022/08/11 14:34:21;;;;;;;5.72;2.97;;;;;;;;;;4400723;32;20331;-82
2022/08/11 14:36:57;;;;;;;3.30;2.90;;;;;;;;;;4400962;32;20645;-81
2022/08/11 14:39:25;;;;;;;2.53;2.33;;;;;;;;;;4398323;32;20259;-82
2022/08/11 14:47:34;;;;;;;5.10;2.30;;;;;;;;;;4400428;32;20680;-81
2022/08/11 14:50:01;;;;;;;4.65;2.42;;;;;;;;;;4400077;32;20257;-82
2022/08/11 14:52:28;;;;;;;3.95;3.25;;;;;;;;;;4400300;32;20202;-80
2022/08/11 14:57:40;;;;;;;4.72;2.20;;;;;;;;;;4400372;32;20582;-81
2022/08/11 15:00:08;;;;;;;5.80;2.30;;;;;;;;;;4400547;32;20278;-80
2022/08/11 15:03:19;;;;;;;3.42;2.10;;;;;;;;;;4400660;32;20360;-81
2022/08/11 15:05:26;;;;;;;3.80;2.50;;;;;;;;;;4398155;32;20229;-82
2022/08/11 15:07:54;;;;;;;8.23;3.08;;;;;;;;;;4400259;32;20323;-80
2022/08/11 15:10:20;;;;;;;16.75;2.92;;;;;;;;;;4399732;32;20225;-81
2022/08/11 15:12:47;;;;;;;4.75;2.90;;;;;;;;;;4399167;32;20242;-80
2022/08/11 15:18:01;;;;;;;11.85;2.83;;;;;;;;;;4398726;32;20247;-81
2022/08/11 15:26:02;;;;;;;2.50;2.20;;;;;;;;;;4399596;32;20245;-82
2022/08/11 15:45:46;;;;;;;12.00;2.50;;;;;;;;;;4402431;32;20708;-87
2022/08/11 15:48:05;;;;;;;8.35;2.97;;;;;;;;;;4388066;32;20281;-86
2022/08/11 15:50:33;;;;;;;4.00;3.10;;;;;;;;;;4388406;32;20240;-83
2022/08/11 15:53:03;;;;;;;6.22;2.37;;;;;;;;;;4388314;32;20313;-86
2022/08/11 15:55:31;;;;;;;4.72;2.75;;;;;;;;;;4387817;32;20291;-81
2022/08/11 16:06:24;;;;;;;3.33;2.53;;;;;;;;;;4387299;32;20244;-82
2022/08/11 16:08:50;;;;;;;6.53;3.10;;;;;;;;;;4396461;32;20742;-86
2022/08/11 16:11:20;;;;;;;5.03;3.42;;;;;;;;;;4402859;32;20249;-84
2022/08/11 16:16:31;;;;;;;4.45;2.72;;;;;;;;;;4401668;32;20267;-82
2022/08/11 16:18:58;;;;;;;6.72;3.42;;;;;;;;;;4403012;32;20217;-82
2022/08/11 16:21:34;;;;;;;4.15;2.97;;;;;;;;;;4403003;32;20455;-81
2022/08/11 16:24:03;;;;;;;3.75;3.20;;;;;;;;;;4402669;32;20659;-82
2022/08/11 16:26:31;;;;;;;5.90;3.50;;;;;;;;;;4402646;32;20229;-83
2022/08/11 16:28:59;;;;;;;4.65;3.70;;;;;;;;;;4401760;32;20214;-85
2022/08/11 16:31:27;;;;;;;12.37;3.75;;;;;;;;;;4401170;32;20275;-82
2022/08/11 16:33:54;;;;;;;7.20;3.42;;;;;;;;;;4402426;32;20259;-82
2022/08/11 16:39:09;;;;;;;4.28;2.97;;;;;;;;;;4401352;32;20664;-84
2022/08/11 16:47:15;;;;;;;6.55;2.30;;;;;;;;;;4402366;32;20287;-82
2022/08/11 16:49:51;;;;;;;4.37;2.90;;;;;;;;;;4402705;32;20298;-83
2022/08/11 16:52:17;;;;;;;8.05;3.35;;;;;;;;;;4402814;32;20255;-88
2022/08/11 16:54:43;;;;;;;3.35;2.67;;;;;;;;;;4402470;32;20225;-83
2022/08/11 17:00:05;;;;;;;4.72;3.80;;;;;;;;;;4402488;32;20731;-86
2022/08/11 17:13:56;;;;;;;5.97;3.72;;;;;;;;;;4402037;32;20270;-84
2022/08/11 17:16:38;;;;;;;5.32;3.28;;;;;;;;;;4401617;32;20229;-85
2022/08/11 17:19:19;;;;;;;5.20;3.40;;;;;;;;;;4401841;32;20204;-81
2022/08/11 17:24:34;;;;;;;13.90;3.72;;;;;;;;;;4401583;32;20335;-82
2022/08/11 17:27:02;;;;;;;6.72;4.12;;;;;;;;;;4401769;32;20226;-81
2022/08/11 17:29:55;;;;;;;7.00;4.40;;;;;;;;;;4401877;32;20259;-90
2022/08/11 17:35:32;;;;;;;6.32;4.28;;;;;;;;;;4401566;32;20357;-84
2022/08/11 17:38:15;;;;;;;5.53;4.12;;;;;;;;;;4401323;32;20280;-84
2022/08/11 17:49:07;;;;;;;9.20;4.00;;;;;;;;;;4400378;32;20228;-83
2022/08/11 17:59:55;;;;;;;4.10;2.97;;;;;;;;;;4401827;32;20278;-83
2022/08/11 18:05:08;;;;;;;4.43;2.95;;;;;;;;;;4400676;32;20322;-85
